Time;durP1;ratioP1;P1;durP2;ratioP2;P2;SDS_P1;SDS_P2;PMS_P1;PMS_P2;Temp;Humidity;BMP_temperature;BMP_pressure;BME280_temperature;BME280_humidity;BME280_pressure;Samples;Min_cycle;Max_cycle;Signal;HPM_P1;HPM_P2
2022/05/28 00:02:28;;;;;;;27.40;13.55;;;;;;;;;;6287956;28;20411;-52
2022/05/28 00:05:29;;;;;;;23.02;12.15;;;;;;;;;;6286902;28;20079;-53
2022/05/28 00:08:30;;;;;;;25.63;12.38;;;;;;;;;;6285816;28;20045;-59
2022/05/28 00:11:36;;;;;;;25.27;11.80;;;;;;;;;;6284390;28;20040;-55
2022/05/28 00:14:37;;;;;;;25.20;12.00;;;;;;;;;;6284118;28;20533;-51
2022/05/28 00:17:37;;;;;;;28.02;12.93;;;;;;;;;;6288081;28;20037;-55
2022/05/28 00:20:38;;;;;;;22.50;11.88;;;;;;;;;;6282813;28;20060;-58
2022/05/28 00:23:40;;;;;;;24.15;12.50;;;;;;;;;;6284543;28;20052;-57
2022/05/28 00:26:42;;;;;;;27.15;13.32;;;;;;;;;;6283996;28;20127;-55
2022/05/28 00:29:42;;;;;;;28.45;13.32;;;;;;;;;;6284590;28;20511;-59
2022/05/28 00:32:43;;;;;;;25.38;11.77;;;;;;;;;;6282078;28;20041;-59
2022/05/28 00:35:44;;;;;;;28.92;13.00;;;;;;;;;;6288313;28;20044;-58
2022/05/28 00:38:45;;;;;;;23.83;11.90;;;;;;;;;;6287845;28;20044;-52
2022/05/28 00:41:46;;;;;;;24.98;11.40;;;;;;;;;;6287063;28;20106;-57
2022/05/28 00:44:47;;;;;;;22.10;11.57;;;;;;;;;;6287100;28;20041;-57
2022/05/28 00:47:53;;;;;;;22.08;11.77;;;;;;;;;;6283389;28;20119;-58
2022/05/28 00:50:54;;;;;;;23.63;11.52;;;;;;;;;;6287932;28;20041;-57
2022/05/28 00:53:58;;;;;;;23.50;11.68;;;;;;;;;;6284682;28;20151;-56
2022/05/28 00:57:01;;;;;;;27.75;13.60;;;;;;;;;;6292727;28;20056;-57
2022/05/28 01:00:04;;;;;;;25.10;12.95;;;;;;;;;;6285107;28;20096;-56
2022/05/28 01:03:33;;;;;;;23.45;12.30;;;;;;;;;;6276645;28;20546;-53
2022/05/28 01:06:43;;;;;;;24.45;12.98;;;;;;;;;;6272668;28;20131;-55
2022/05/28 01:10:01;;;;;;;24.73;13.38;;;;;;;;;;6285867;28;20411;-56
2022/05/28 01:13:08;;;;;;;24.23;13.05;;;;;;;;;;6286247;28;20041;-58
2022/05/28 01:16:21;;;;;;;24.42;12.05;;;;;;;;;;6282262;28;20547;-58
2022/05/28 01:19:44;;;;;;;25.95;12.85;;;;;;;;;;6283017;28;20790;-55
2022/05/28 01:23:03;;;;;;;29.05;12.98;;;;;;;;;;6284815;28;20083;-54
2022/05/28 01:26:19;;;;;;;31.85;14.20;;;;;;;;;;6280657;28;20056;-53
2022/05/28 01:29:23;;;;;;;27.08;13.88;;;;;;;;;;6284735;28;20079;-55
2022/05/28 01:32:25;;;;;;;27.67;13.82;;;;;;;;;;6292414;28;20085;-56
2022/05/28 01:35:28;;;;;;;24.55;12.60;;;;;;;;;;6281588;28;20242;-58
2022/05/28 01:38:30;;;;;;;28.90;14.60;;;;;;;;;;6284436;28;20101;-56
2022/05/28 01:41:33;;;;;;;24.55;12.30;;;;;;;;;;6283206;28;20071;-59
2022/05/28 01:44:36;;;;;;;22.85;12.82;;;;;;;;;;6282344;28;20147;-53
2022/05/28 01:47:37;;;;;;;26.55;14.20;;;;;;;;;;6284394;28;20072;-54
2022/05/28 01:50:43;;;;;;;28.33;13.25;;;;;;;;;;6278949;28;20044;-56
2022/05/28 01:57:05;;;;;;;26.20;13.40;;;;;;;;;;6282230;28;20048;-59
2022/05/28 02:00:09;;;;;;;31.73;15.15;;;;;;;;;;6283773;28;20507;-55
2022/05/28 02:03:10;;;;;;;31.98;16.05;;;;;;;;;;6280054;28;20048;-53
2022/05/28 02:06:11;;;;;;;29.63;14.50;;;;;;;;;;6279262;28;20091;-55
2022/05/28 02:09:19;;;;;;;35.33;17.77;;;;;;;;;;6279959;28;20131;-58
2022/05/28 02:12:33;;;;;;;36.63;16.75;;;;;;;;;;6280738;28;20494;-53
2022/05/28 02:15:48;;;;;;;32.55;16.13;;;;;;;;;;6267003;28;20062;-55
2022/05/28 02:18:55;;;;;;;33.65;16.58;;;;;;;;;;6302102;28;20415;-53
2022/05/28 02:22:02;;;;;;;30.10;14.52;;;;;;;;;;6281258;28;20498;-55
2022/05/28 02:25:11;;;;;;;34.90;16.15;;;;;;;;;;6282842;28;20052;-53
2022/05/28 02:28:13;;;;;;;32.00;17.17;;;;;;;;;;6285619;28;20486;-57
2022/05/28 02:31:21;;;;;;;39.10;18.77;;;;;;;;;;6281916;28;20056;-54
2022/05/28 02:34:22;;;;;;;36.38;18.23;;;;;;;;;;6290599;28;20036;-58
2022/05/28 02:37:25;;;;;;;41.05;19.55;;;;;;;;;;6285971;28;20079;-59
2022/05/28 02:40:26;;;;;;;34.97;17.63;;;;;;;;;;6279341;28;20048;-54
2022/05/28 02:43:26;;;;;;;40.22;20.50;;;;;;;;;;6286257;28;20055;-59
2022/05/28 02:46:27;;;;;;;35.95;19.25;;;;;;;;;;6283847;28;20066;-57
2022/05/28 02:49:28;;;;;;;34.13;18.80;;;;;;;;;;6284899;28;20083;-53
2022/05/28 02:52:28;;;;;;;37.05;18.98;;;;;;;;;;6285587;28;20132;-54
2022/05/28 02:55:29;;;;;;;38.65;19.65;;;;;;;;;;6287786;28;20462;-56
2022/05/28 02:58:30;;;;;;;37.75;19.38;;;;;;;;;;6287205;28;20480;-53
2022/05/28 03:01:33;;;;;;;42.38;19.58;;;;;;;;;;6285261;28;20076;-55
2022/05/28 03:04:33;;;;;;;36.25;18.48;;;;;;;;;;6290736;28;20075;-56
2022/05/28 03:07:34;;;;;;;33.45;18.55;;;;;;;;;;6282337;28;20048;-58
2022/05/28 03:10:34;;;;;;;32.50;17.85;;;;;;;;;;6279089;28;20074;-57
2022/05/28 03:13:36;;;;;;;33.70;17.90;;;;;;;;;;6284459;28;20067;-53
2022/05/28 03:16:36;;;;;;;33.20;18.50;;;;;;;;;;6282745;28;20048;-54
2022/05/28 03:19:37;;;;;;;33.67;17.42;;;;;;;;;;6294369;28;20052;-55
2022/05/28 03:22:37;;;;;;;30.35;16.92;;;;;;;;;;6291836;28;20123;-53
2022/05/28 03:25:38;;;;;;;29.02;15.43;;;;;;;;;;6295704;28;20081;-54
2022/05/28 03:28:39;;;;;;;29.95;14.50;;;;;;;;;;6286432;28;20059;-57
2022/05/28 03:31:39;;;;;;;36.85;16.05;;;;;;;;;;6292900;28;20060;-57
2022/05/28 03:34:40;;;;;;;28.60;16.40;;;;;;;;;;6294823;28;20146;-57
2022/05/28 03:37:41;;;;;;;32.88;16.88;;;;;;;;;;6291407;28;21226;-58
2022/05/28 03:40:41;;;;;;;36.40;18.40;;;;;;;;;;6295439;28;20158;-57
2022/05/28 03:43:42;;;;;;;38.95;19.40;;;;;;;;;;6294055;28;20810;-55
2022/05/28 03:46:43;;;;;;;35.88;18.55;;;;;;;;;;6291653;28;20079;-56
2022/05/28 03:49:44;;;;;;;40.73;20.03;;;;;;;;;;6291913;28;20076;-54
2022/05/28 03:52:45;;;;;;;32.47;16.20;;;;;;;;;;6291332;28;20044;-54
2022/05/28 03:55:46;;;;;;;26.52;13.85;;;;;;;;;;6289717;28;20055;-54
2022/05/28 03:58:47;;;;;;;27.52;13.55;;;;;;;;;;6294706;28;20090;-58
2022/05/28 04:01:48;;;;;;;28.75;14.88;;;;;;;;;;6289873;28;20079;-58
2022/05/28 04:04:48;;;;;;;26.60;15.05;;;;;;;;;;6289585;28;20063;-58
2022/05/28 04:07:50;;;;;;;29.23;15.32;;;;;;;;;;6291097;28;20072;-55
2022/05/28 04:10:50;;;;;;;29.67;14.48;;;;;;;;;;6271886;28;20505;-53
2022/05/28 04:13:51;;;;;;;24.73;14.55;;;;;;;;;;6292518;28;20127;-54
2022/05/28 04:16:52;;;;;;;29.67;16.10;;;;;;;;;;6293328;28;20482;-60
2022/05/28 04:19:52;;;;;;;26.73;14.90;;;;;;;;;;6289903;28;20036;-53
2022/05/28 04:22:53;;;;;;;30.42;15.65;;;;;;;;;;6289967;28;20562;-60
2022/05/28 04:25:54;;;;;;;28.05;15.05;;;;;;;;;;6293482;28;20040;-55
2022/05/28 04:28:54;;;;;;;27.08;13.73;;;;;;;;;;6302361;28;20083;-56
2022/05/28 04:31:55;;;;;;;27.52;13.13;;;;;;;;;;6292636;28;20472;-55
2022/05/28 04:34:56;;;;;;;25.23;14.05;;;;;;;;;;6272200;28;20490;-56
2022/05/28 04:37:57;;;;;;;24.42;13.60;;;;;;;;;;6288070;28;20068;-56
2022/05/28 04:40:57;;;;;;;23.48;13.32;;;;;;;;;;6284400;28;20909;-58
2022/05/28 04:43:58;;;;;;;25.92;13.63;;;;;;;;;;6287695;28;20512;-56
2022/05/28 04:46:59;;;;;;;25.23;12.63;;;;;;;;;;6288801;28;20052;-55
2022/05/28 04:49:59;;;;;;;26.95;12.82;;;;;;;;;;6268806;28;20056;-53
2022/05/28 04:53:00;;;;;;;24.30;12.27;;;;;;;;;;6287262;28;20048;-55
2022/05/28 04:56:00;;;;;;;21.90;11.40;;;;;;;;;;6305552;28;20069;-55
2022/05/28 04:59:01;;;;;;;23.17;12.02;;;;;;;;;;6284130;28;20608;-52
2022/05/28 05:02:02;;;;;;;16.38;8.95;;;;;;;;;;6282875;28;20063;-58
2022/05/28 05:05:03;;;;;;;19.02;8.02;;;;;;;;;;6289650;28;20037;-58
2022/05/28 05:08:04;;;;;;;16.52;7.57;;;;;;;;;;6282431;28;20048;-55
2022/05/28 05:11:05;;;;;;;12.07;6.30;;;;;;;;;;6293440;28;20415;-58
2022/05/28 05:14:06;;;;;;;12.07;5.80;;;;;;;;;;6283530;28;20072;-56
2022/05/28 05:17:06;;;;;;;13.25;5.68;;;;;;;;;;6288267;28;20127;-60
2022/05/28 05:20:10;;;;;;;12.95;5.82;;;;;;;;;;6283991;28;20063;-56
2022/05/28 05:23:10;;;;;;;14.70;5.78;;;;;;;;;;6289273;28;20400;-55
2022/05/28 05:26:20;;;;;;;11.93;5.80;;;;;;;;;;6279353;28;20080;-55
2022/05/28 05:29:20;;;;;;;14.38;5.78;;;;;;;;;;6281810;28;20087;-57
2022/05/28 05:32:21;;;;;;;14.85;5.68;;;;;;;;;;6286106;28;20048;-57
2022/05/28 05:35:22;;;;;;;14.25;6.05;;;;;;;;;;6280376;28;20167;-53
2022/05/28 05:38:23;;;;;;;15.10;5.80;;;;;;;;;;6287996;28;20765;-55
2022/05/28 05:41:23;;;;;;;15.35;5.50;;;;;;;;;;6284365;28;20503;-55
2022/05/28 05:44:24;;;;;;;13.00;5.45;;;;;;;;;;6286400;28;20040;-56
2022/05/28 05:47:24;;;;;;;13.18;5.40;;;;;;;;;;6286016;28;20040;-60
2022/05/28 05:50:25;;;;;;;16.65;5.07;;;;;;;;;;6288569;28;20103;-60
2022/05/28 05:53:25;;;;;;;11.48;4.50;;;;;;;;;;6281908;28;20140;-54
2022/05/28 05:56:26;;;;;;;14.10;5.25;;;;;;;;;;6281826;28;20045;-54
2022/05/28 05:59:27;;;;;;;12.45;5.00;;;;;;;;;;6281687;28;20179;-54
2022/05/28 06:02:28;;;;;;;10.80;4.32;;;;;;;;;;6286579;28;20040;-57
2022/05/28 06:05:29;;;;;;;13.93;4.13;;;;;;;;;;6278308;28;20054;-54
2022/05/28 06:08:30;;;;;;;14.48;4.00;;;;;;;;;;6284628;28;20503;-57
2022/05/28 06:11:32;;;;;;;10.10;4.20;;;;;;;;;;6282298;28;20529;-56
2022/05/28 06:14:32;;;;;;;12.82;4.60;;;;;;;;;;6284828;28;20068;-54
2022/05/28 06:17:36;;;;;;;8.25;3.38;;;;;;;;;;6295895;28;20074;-55
2022/05/28 06:20:36;;;;;;;10.70;3.95;;;;;;;;;;6283239;28;20431;-58
2022/05/28 06:23:38;;;;;;;10.95;3.40;;;;;;;;;;6286040;28;20075;-58
2022/05/28 06:26:38;;;;;;;9.80;3.42;;;;;;;;;;6285539;28;20447;-58
2022/05/28 06:29:39;;;;;;;12.43;3.50;;;;;;;;;;6279306;28;20135;-54
2022/05/28 06:32:40;;;;;;;10.93;3.35;;;;;;;;;;6281247;28;20059;-57
2022/05/28 06:35:40;;;;;;;14.32;4.07;;;;;;;;;;6283718;28;20105;-55
2022/05/28 06:38:42;;;;;;;12.30;3.15;;;;;;;;;;6278036;28;20040;-58
2022/05/28 06:41:42;;;;;;;10.40;3.13;;;;;;;;;;6298345;28;20154;-55
2022/05/28 06:44:43;;;;;;;8.30;3.25;;;;;;;;;;6283852;28;20293;-52
2022/05/28 06:47:45;;;;;;;6.35;2.80;;;;;;;;;;6278812;28;20037;-52
2022/05/28 06:51:04;;;;;;;;;;;;;;;;;;6283834;28;20179;-57
2022/05/28 06:54:04;;;;;;;7.60;3.08;;;;;;;;;;6283231;28;20537;-55
2022/05/28 06:57:05;;;;;;;8.80;3.10;;;;;;;;;;6283414;28;20067;-55
2022/05/28 07:00:06;;;;;;;7.22;2.70;;;;;;;;;;6283013;28;20048;-58
2022/05/28 07:03:15;;;;;;;8.52;2.65;;;;;;;;;;6283456;28;20085;-57
2022/05/28 07:06:16;;;;;;;6.72;2.60;;;;;;;;;;6279060;28;20048;-57
2022/05/28 07:09:17;;;;;;;10.38;2.80;;;;;;;;;;6282834;28;20432;-55
2022/05/28 07:12:17;;;;;;;7.10;2.58;;;;;;;;;;6279634;28;20051;-58
2022/05/28 07:15:19;;;;;;;7.03;2.40;;;;;;;;;;6278656;28;20063;-57
2022/05/28 07:18:20;;;;;;;7.03;2.47;;;;;;;;;;6280371;28;20123;-58
2022/05/28 07:21:21;;;;;;;5.50;2.20;;;;;;;;;;6275781;28;20057;-54
2022/05/28 07:24:22;;;;;;;7.93;2.17;;;;;;;;;;6286360;28;20479;-59
2022/05/28 07:27:22;;;;;;;5.13;1.80;;;;;;;;;;6283638;28;20053;-58
2022/05/28 07:30:23;;;;;;;5.03;2.05;;;;;;;;;;6280763;28;20499;-57
2022/05/28 07:33:27;;;;;;;8.23;2.10;;;;;;;;;;6279499;28;20067;-53
2022/05/28 07:36:28;;;;;;;6.30;1.73;;;;;;;;;;6294731;28;20052;-57
2022/05/28 07:39:28;;;;;;;8.75;1.90;;;;;;;;;;6280545;28;20086;-57
2022/05/28 07:42:29;;;;;;;10.32;1.95;;;;;;;;;;6279116;28;20059;-56
2022/05/28 07:45:35;;;;;;;5.68;2.83;;;;;;;;;;6285474;28;20530;-57
2022/05/28 07:48:35;;;;;;;3.25;1.60;;;;;;;;;;6264457;28;20147;-56
2022/05/28 07:51:36;;;;;;;5.50;2.20;;;;;;;;;;6286435;28;20439;-55
2022/05/28 07:54:37;;;;;;;5.22;2.00;;;;;;;;;;6281142;28;20036;-55
2022/05/28 07:57:37;;;;;;;5.93;1.80;;;;;;;;;;6276309;28;20056;-54
2022/05/28 08:00:47;;;;;;;5.72;1.75;;;;;;;;;;6305381;28;20042;-55
2022/05/28 08:03:49;;;;;;;7.15;2.25;;;;;;;;;;6290892;28;20076;-57
2022/05/28 08:06:49;;;;;;;6.07;2.22;;;;;;;;;;6289823;28;20079;-55
2022/05/28 08:09:50;;;;;;;6.10;2.28;;;;;;;;;;6286114;28;20048;-57
2022/05/28 08:12:50;;;;;;;6.75;2.58;;;;;;;;;;6285903;28;20048;-55
2022/05/28 08:15:53;;;;;;;5.65;2.22;;;;;;;;;;6308454;28;20044;-59
2022/05/28 08:18:54;;;;;;;6.07;2.40;;;;;;;;;;6286084;28;20738;-59
2022/05/28 08:25:17;;;;;;;6.10;2.70;;;;;;;;;;6283255;28;20081;-55
2022/05/28 08:28:19;;;;;;;6.95;2.38;;;;;;;;;;6283642;28;20045;-55
2022/05/28 08:31:21;;;;;;;;;;;;;;;;;;6285993;28;20053;-56
2022/05/28 08:34:22;;;;;;;6.63;2.55;;;;;;;;;;6291135;28;19963;-53
2022/05/28 08:37:23;;;;;;;9.35;3.28;;;;;;;;;;6286132;28;20094;-56
2022/05/28 08:40:24;;;;;;;4.93;2.15;;;;;;;;;;6286477;28;20050;-59
2022/05/28 08:43:29;;;;;;;7.30;2.25;;;;;;;;;;6286384;28;20507;-55
2022/05/28 08:46:34;;;;;;;6.10;2.47;;;;;;;;;;6290758;28;20115;-59
2022/05/28 08:49:37;;;;;;;6.43;2.40;;;;;;;;;;6289514;28;20502;-57
2022/05/28 08:53:04;;;;;;;6.40;2.20;;;;;;;;;;6281596;28;20064;-54
2022/05/28 08:56:05;;;;;;;7.28;2.65;;;;;;;;;;6288964;28;20479;-57
2022/05/28 08:59:15;;;;;;;5.03;1.90;;;;;;;;;;6278529;28;20627;-56
2022/05/28 09:02:26;;;;;;;6.70;2.00;;;;;;;;;;6286564;28;20505;-54
2022/05/28 09:05:50;;;;;;;7.85;2.55;;;;;;;;;;6282224;28;20143;-54
2022/05/28 09:08:53;;;;;;;5.03;2.15;;;;;;;;;;6273198;28;20059;-51
2022/05/28 09:12:00;;;;;;;8.85;2.50;;;;;;;;;;6287265;28;20080;-60
2022/05/28 09:15:00;;;;;;;11.60;2.53;;;;;;;;;;6289470;28;20235;-59
2022/05/28 09:18:01;;;;;;;6.80;2.33;;;;;;;;;;6260637;28;20049;-58
2022/05/28 09:21:03;;;;;;;5.32;2.40;;;;;;;;;;6263348;28;20144;-58
2022/05/28 09:24:25;;;;;;;9.55;2.30;;;;;;;;;;6275346;28;20056;-56
2022/05/28 09:27:38;;;;;;;8.82;2.10;;;;;;;;;;6289007;28;20040;-52
2022/05/28 09:31:00;;;;;;;5.22;1.60;;;;;;;;;;6267973;28;20056;-55
2022/05/28 09:34:39;;;;;;;6.38;1.90;;;;;;;;;;6276805;28;20055;-55
2022/05/28 09:37:52;;;;;;;4.07;1.35;;;;;;;;;;6164072;28;20059;-53
2022/05/28 09:41:02;;;;;;;3.20;1.58;;;;;;;;;;6185472;28;20049;-57
2022/05/28 09:44:21;;;;;;;4.50;1.38;;;;;;;;;;6255128;28;20041;-55
2022/05/28 09:47:21;;;;;;;5.45;1.75;;;;;;;;;;6267681;28;20045;-58
2022/05/28 09:50:22;;;;;;;5.65;1.30;;;;;;;;;;6282739;28;20124;-56
2022/05/28 09:57:19;;;;;;;2.63;1.00;;;;;;;;;;6292206;28;20125;-53
2022/05/28 10:00:21;;;;;;;3.28;1.23;;;;;;;;;;6286955;28;20110;-57
2022/05/28 10:06:53;;;;;;;5.22;1.25;;;;;;;;;;6290540;28;20070;-51
2022/05/28 10:09:53;;;;;;;3.58;1.30;;;;;;;;;;6291750;28;20053;-57
2022/05/28 10:13:13;;;;;;;8.02;1.38;;;;;;;;;;6284540;28;20147;-58
2022/05/28 10:16:18;;;;;;;4.40;1.20;;;;;;;;;;6282403;28;20053;-51
2022/05/28 10:19:41;;;;;;;4.18;1.20;;;;;;;;;;6286757;28;20071;-54
2022/05/28 10:22:42;;;;;;;4.88;1.17;;;;;;;;;;6286038;28;20109;-52
2022/05/28 10:25:50;;;;;;;4.47;1.20;;;;;;;;;;6288591;28;20048;-55
2022/05/28 10:28:55;;;;;;;4.32;1.33;;;;;;;;;;6286742;28;20067;-54
2022/05/28 10:31:59;;;;;;;5.13;1.42;;;;;;;;;;6283322;28;20064;-59
2022/05/28 10:35:03;;;;;;;4.88;1.70;;;;;;;;;;6279895;28;20037;-57
2022/05/28 10:38:23;;;;;;;3.33;1.15;;;;;;;;;;6283787;28;20551;-58
2022/05/28 10:41:26;;;;;;;8.27;1.00;;;;;;;;;;6283647;28;20087;-60
2022/05/28 10:44:26;;;;;;;5.15;1.20;;;;;;;;;;6281966;28;20530;-58
2022/05/28 10:48:05;;;;;;;4.05;1.33;;;;;;;;;;6280051;28;20079;-58
2022/05/28 10:51:25;;;;;;;4.22;1.10;;;;;;;;;;6287401;28;20447;-57
2022/05/28 10:54:41;;;;;;;4.47;1.30;;;;;;;;;;6277667;28;20048;-58
2022/05/28 10:58:00;;;;;;;4.45;1.10;;;;;;;;;;6283785;28;20407;-59
2022/05/28 11:01:05;;;;;;;3.65;1.08;;;;;;;;;;6286749;28;20183;-56
2022/05/28 11:04:23;;;;;;;5.28;1.17;;;;;;;;;;6284021;28;20089;-55
2022/05/28 11:07:51;;;;;;;5.28;1.10;;;;;;;;;;6286667;28;20045;-58
2022/05/28 11:11:17;;;;;;;4.68;1.10;;;;;;;;;;6285264;28;20052;-55
2022/05/28 11:14:36;;;;;;;2.40;1.00;;;;;;;;;;6251079;28;20060;-59
2022/05/28 11:18:01;;;;;;;5.53;1.35;;;;;;;;;;6290371;28;20495;-56
2022/05/28 11:21:20;;;;;;;2.25;1.30;;;;;;;;;;6289649;28;20053;-55
2022/05/28 11:24:41;;;;;;;4.40;1.45;;;;;;;;;;6289199;28;20045;-54
2022/05/28 11:27:42;;;;;;;6.20;1.53;;;;;;;;;;6289450;28;20137;-55
2022/05/28 11:30:47;;;;;;;3.90;1.80;;;;;;;;;;6288405;28;20449;-58
2022/05/28 11:33:49;;;;;;;5.68;1.30;;;;;;;;;;6281545;28;20052;-59
2022/05/28 11:36:56;;;;;;;5.57;1.20;;;;;;;;;;6276006;28;20045;-57
2022/05/28 11:40:11;;;;;;;3.97;1.42;;;;;;;;;;6270062;28;20075;-58
2022/05/28 11:43:18;;;;;;;4.07;1.27;;;;;;;;;;6272849;28;20044;-58
2022/05/28 11:47:11;;;;;;;3.08;1.30;;;;;;;;;;6271593;28;20059;-57
2022/05/28 11:53:54;;;;;;;7.05;1.77;;;;;;;;;;6282058;28;19982;-58
2022/05/28 11:57:03;;;;;;;3.70;1.42;;;;;;;;;;6283175;28;20142;-58
2022/05/28 12:00:07;;;;;;;3.13;1.20;;;;;;;;;;6280536;28;20489;-59
2022/05/28 12:03:26;;;;;;;3.10;1.20;;;;;;;;;;6281919;28;20137;-55
2022/05/28 12:06:31;;;;;;;3.92;1.40;;;;;;;;;;6282458;28;20601;-58
2022/05/28 12:09:35;;;;;;;3.00;1.50;;;;;;;;;;6279360;28;20056;-58
2022/05/28 12:12:58;;;;;;;3.38;1.63;;;;;;;;;;6281538;28;20072;-58
2022/05/28 12:16:03;;;;;;;3.13;1.25;;;;;;;;;;6277358;28;20778;-57
2022/05/28 12:19:21;;;;;;;4.90;1.52;;;;;;;;;;6278336;28;20699;-58
2022/05/28 12:22:27;;;;;;;3.72;1.63;;;;;;;;;;6273939;28;20044;-57
2022/05/28 12:25:33;;;;;;;3.33;1.35;;;;;;;;;;6272521;28;20139;-55
2022/05/28 12:28:51;;;;;;;4.60;1.30;;;;;;;;;;6267886;28;20124;-58
2022/05/28 12:31:52;;;;;;;3.35;1.10;;;;;;;;;;6268490;28;20048;-57
2022/05/28 12:35:07;;;;;;;2.72;1.20;;;;;;;;;;6270774;28;20040;-54
2022/05/28 12:38:11;;;;;;;3.03;1.00;;;;;;;;;;6258829;28;20175;-57
2022/05/28 12:41:20;;;;;;;2.05;0.90;;;;;;;;;;6262822;28;20055;-56
2022/05/28 12:44:23;;;;;;;1.95;0.90;;;;;;;;;;6260807;28;20518;-58
2022/05/28 12:47:26;;;;;;;2.92;0.90;;;;;;;;;;6264602;28;20628;-56
2022/05/28 12:50:47;;;;;;;1.75;0.80;;;;;;;;;;6263662;28;20121;-55
2022/05/28 12:53:55;;;;;;;3.20;0.80;;;;;;;;;;6261607;28;20064;-53
2022/05/28 12:57:10;;;;;;;5.88;1.20;;;;;;;;;;6270115;28;20514;-55
2022/05/28 13:00:39;;;;;;;4.60;1.20;;;;;;;;;;6268907;28;20147;-58
2022/05/28 13:03:42;;;;;;;6.43;1.27;;;;;;;;;;6258775;28;20091;-57
2022/05/28 13:06:45;;;;;;;3.45;1.25;;;;;;;;;;6271440;28;20119;-56
2022/05/28 13:09:47;;;;;;;4.18;1.08;;;;;;;;;;6266983;28;20143;-58
2022/05/28 13:12:58;;;;;;;;;;;;;;;;;;6263157;28;20880;-54
2022/05/28 13:16:25;;;;;;;3.10;1.02;;;;;;;;;;6264593;28;19928;-55
2022/05/28 13:19:45;;;;;;;3.20;1.05;;;;;;;;;;6261072;28;20113;-54
2022/05/28 13:23:09;;;;;;;2.83;1.15;;;;;;;;;;6266636;28;20472;-55
2022/05/28 13:26:37;;;;;;;3.17;0.90;;;;;;;;;;6269404;28;20083;-55
2022/05/28 13:30:10;;;;;;;3.63;1.45;;;;;;;;;;6263834;28;20151;-53
2022/05/28 13:33:14;;;;;;;2.38;1.02;;;;;;;;;;6264978;28;20087;-55
2022/05/28 13:36:16;;;;;;;2.03;0.90;;;;;;;;;;6264702;28;20098;-55
2022/05/28 13:39:16;;;;;;;3.72;1.38;;;;;;;;;;6262406;28;20041;-58
2022/05/28 13:42:19;;;;;;;6.22;1.38;;;;;;;;;;6269441;28;20525;-56
2022/05/28 13:45:42;;;;;;;2.80;1.30;;;;;;;;;;6264264;28;20049;-56
2022/05/28 13:48:59;;;;;;;4.65;2.10;;;;;;;;;;6265428;28;20469;-54
2022/05/28 13:52:28;;;;;;;5.72;1.33;;;;;;;;;;6265392;28;20487;-55
2022/05/28 13:55:29;;;;;;;4.85;1.50;;;;;;;;;;6264822;28;20139;-53
2022/05/28 13:58:35;;;;;;;3.35;1.40;;;;;;;;;;6264552;28;20049;-53
2022/05/28 14:01:38;;;;;;;4.25;1.38;;;;;;;;;;6270092;28;20083;-55
2022/05/28 14:04:44;;;;;;;4.00;1.50;;;;;;;;;;6270891;28;20057;-55
2022/05/28 14:07:46;;;;;;;3.65;1.20;;;;;;;;;;6270256;28;20060;-52
2022/05/28 14:10:47;;;;;;;3.30;1.40;;;;;;;;;;6260489;28;20105;-55
2022/05/28 14:13:54;;;;;;;4.77;1.50;;;;;;;;;;6263232;28;20087;-53
2022/05/28 14:16:58;;;;;;;3.85;1.42;;;;;;;;;;6269212;28;20858;-55
2022/05/28 14:20:00;;;;;;;4.95;1.25;;;;;;;;;;6263387;28;20544;-57
2022/05/28 14:23:02;;;;;;;;;;;;;;;;;;6267302;28;20131;-57
2022/05/28 14:26:03;;;;;;;4.22;1.33;;;;;;;;;;6265108;28;20787;-57
2022/05/28 14:29:05;;;;;;;3.17;1.10;;;;;;;;;;6262277;28;20562;-58
2022/05/28 14:32:24;;;;;;;4.25;1.10;;;;;;;;;;6263502;28;20140;-54
2022/05/28 14:35:40;;;;;;;3.17;1.20;;;;;;;;;;6264585;28;20605;-54
2022/05/28 14:38:41;;;;;;;3.13;1.05;;;;;;;;;;6262552;28;20079;-57
2022/05/28 14:42:07;;;;;;;3.53;1.13;;;;;;;;;;6267607;28;20514;-54
2022/05/28 14:45:15;;;;;;;3.35;1.10;;;;;;;;;;6261514;28;20072;-57
2022/05/28 14:48:23;;;;;;;5.07;1.40;;;;;;;;;;6262003;28;20141;-57
2022/05/28 14:51:25;;;;;;;2.97;1.08;;;;;;;;;;6264393;28;20056;-57
2022/05/28 14:54:48;;;;;;;4.68;1.30;;;;;;;;;;6265141;28;20067;-53
2022/05/28 14:58:00;;;;;;;4.63;1.27;;;;;;;;;;6267023;28;20086;-56
2022/05/28 15:01:07;;;;;;;2.70;1.10;;;;;;;;;;6248998;28;20107;-58
2022/05/28 15:04:14;;;;;;;3.10;1.35;;;;;;;;;;6265647;28;20203;-58
2022/05/28 15:07:26;;;;;;;4.07;1.42;;;;;;;;;;6267508;28;20040;-56
2022/05/28 15:10:29;;;;;;;5.60;1.38;;;;;;;;;;6258618;28;20249;-57
2022/05/28 15:13:32;;;;;;;5.63;1.20;;;;;;;;;;6263567;28;20128;-58
2022/05/28 15:16:33;;;;;;;3.55;0.90;;;;;;;;;;6266288;28;20080;-57
2022/05/28 15:19:33;;;;;;;5.03;1.20;;;;;;;;;;6261142;28;20051;-57
2022/05/28 15:22:34;;;;;;;3.15;1.20;;;;;;;;;;6259183;28;20051;-58
2022/05/28 15:25:35;;;;;;;4.78;1.20;;;;;;;;;;6261792;28;20041;-53
2022/05/28 15:28:36;;;;;;;4.10;1.20;;;;;;;;;;6262325;28;20068;-57
2022/05/28 15:31:38;;;;;;;2.58;0.90;;;;;;;;;;6257995;28;20098;-55
2022/05/28 15:34:38;;;;;;;2.60;1.13;;;;;;;;;;6258508;28;20139;-55
2022/05/28 15:37:54;;;;;;;5.05;1.25;;;;;;;;;;6265455;28;20048;-58
2022/05/28 15:41:01;;;;;;;2.50;1.10;;;;;;;;;;6266928;28;20091;-54
2022/05/28 15:44:02;;;;;;;3.60;1.13;;;;;;;;;;6267689;28;20057;-55
2022/05/28 15:47:03;;;;;;;4.22;1.55;;;;;;;;;;6268972;28;20551;-58
2022/05/28 15:50:04;;;;;;;3.70;1.40;;;;;;;;;;6267599;28;20052;-58
2022/05/28 15:53:05;;;;;;;5.82;1.42;;;;;;;;;;6263859;28;20152;-58
2022/05/28 15:56:14;;;;;;;3.80;1.20;;;;;;;;;;6263390;28;20842;-55
2022/05/28 15:59:18;;;;;;;4.82;1.30;;;;;;;;;;6263093;28;20179;-59
2022/05/28 16:02:23;;;;;;;3.47;1.30;;;;;;;;;;6265200;28;20048;-54
2022/05/28 16:05:25;;;;;;;6.13;1.70;;;;;;;;;;6262552;28;20068;-59
2022/05/28 16:11:33;;;;;;;4.88;1.73;;;;;;;;;;6265983;28;20122;-54
2022/05/28 16:14:35;;;;;;;6.55;2.45;;;;;;;;;;6264834;28;20052;-56
2022/05/28 16:17:36;;;;;;;5.82;4.00;;;;;;;;;;6264478;28;20412;-56
2022/05/28 16:20:38;;;;;;;4.53;1.70;;;;;;;;;;6264742;28;20044;-58
2022/05/28 16:23:39;;;;;;;3.70;1.50;;;;;;;;;;6263318;28;20547;-59
2022/05/28 16:26:39;;;;;;;4.60;1.60;;;;;;;;;;6268619;28;20061;-57
2022/05/28 16:29:40;;;;;;;6.45;2.13;;;;;;;;;;6265371;28;20049;-57
2022/05/28 16:32:40;;;;;;;4.43;2.30;;;;;;;;;;6270154;28;20064;-55
2022/05/28 16:35:41;;;;;;;4.45;2.20;;;;;;;;;;6271709;28;20040;-55
2022/05/28 16:38:42;;;;;;;4.40;1.95;;;;;;;;;;6265476;28;20504;-55
2022/05/28 16:41:43;;;;;;;4.18;2.08;;;;;;;;;;6265603;28;20037;-59
2022/05/28 16:44:46;;;;;;;7.47;1.77;;;;;;;;;;6267710;28;20557;-56
2022/05/28 16:47:47;;;;;;;6.97;3.20;;;;;;;;;;6271066;28;20053;-57
2022/05/28 16:50:48;;;;;;;5.40;1.88;;;;;;;;;;6268402;28;20500;-59
2022/05/28 16:53:49;;;;;;;3.63;1.33;;;;;;;;;;6266211;28;20053;-58
2022/05/28 16:56:49;;;;;;;9.63;4.50;;;;;;;;;;6268399;28;20057;-58
2022/05/28 16:59:50;;;;;;;4.75;1.85;;;;;;;;;;6264818;28;20049;-59
2022/05/28 17:02:51;;;;;;;5.43;1.95;;;;;;;;;;6267236;28;20159;-58
2022/05/28 17:05:52;;;;;;;6.32;1.90;;;;;;;;;;6267864;28;20060;-51
2022/05/28 17:08:52;;;;;;;5.18;2.10;;;;;;;;;;6265777;28;20044;-58
2022/05/28 17:11:55;;;;;;;5.75;1.75;;;;;;;;;;6265090;28;20095;-57
2022/05/28 17:14:56;;;;;;;4.28;1.25;;;;;;;;;;6265348;28;20060;-55
2022/05/28 17:17:57;;;;;;;5.32;1.95;;;;;;;;;;6269944;28;20071;-56
2022/05/28 17:20:58;;;;;;;3.85;1.90;;;;;;;;;;6266806;28;20057;-59
2022/05/28 17:23:58;;;;;;;6.18;1.60;;;;;;;;;;6263192;28;20075;-58
2022/05/28 17:26:59;;;;;;;3.40;1.52;;;;;;;;;;6270500;28;20795;-54
2022/05/28 17:30:00;;;;;;;4.15;1.40;;;;;;;;;;6267896;28;20049;-57
2022/05/28 17:33:06;;;;;;;5.45;2.20;;;;;;;;;;6264503;28;20059;-54
2022/05/28 17:36:08;;;;;;;4.55;1.77;;;;;;;;;;6269690;28;20179;-57
2022/05/28 17:39:09;;;;;;;;;;;;;;;;;;6271072;28;20080;-55
2022/05/28 17:42:10;;;;;;;5.88;1.60;;;;;;;;;;6269764;28;20084;-58
2022/05/28 17:45:13;;;;;;;4.25;1.60;;;;;;;;;;6266861;28;20499;-57
2022/05/28 17:48:18;;;;;;;5.38;1.77;;;;;;;;;;6264828;28;20475;-58
2022/05/28 17:51:22;;;;;;;6.40;1.70;;;;;;;;;;6254960;28;20638;-54
2022/05/28 17:54:23;;;;;;;5.30;1.70;;;;;;;;;;6243470;28;20145;-54
2022/05/28 17:57:24;;;;;;;5.70;1.67;;;;;;;;;;6266932;28;20044;-58
2022/05/28 18:00:27;;;;;;;3.17;1.45;;;;;;;;;;6264235;28;20812;-54
2022/05/28 18:03:29;;;;;;;4.50;1.60;;;;;;;;;;6277479;28;20835;-56
2022/05/28 18:06:30;;;;;;;3.60;1.48;;;;;;;;;;6279156;28;20084;-59
2022/05/28 18:09:31;;;;;;;5.72;1.83;;;;;;;;;;6275449;28;20101;-56
2022/05/28 18:12:31;;;;;;;5.05;1.85;;;;;;;;;;6269578;28;20051;-58
2022/05/28 18:15:35;;;;;;;4.13;1.67;;;;;;;;;;6259883;28;20041;-60
2022/05/28 18:18:42;;;;;;;6.13;1.70;;;;;;;;;;6268704;28;20059;-55
2022/05/28 18:21:44;;;;;;;4.40;1.65;;;;;;;;;;6264148;28;20063;-56
2022/05/28 18:24:45;;;;;;;4.90;1.58;;;;;;;;;;6261031;28;20609;-52
2022/05/28 18:27:48;;;;;;;7.85;1.80;;;;;;;;;;6261748;28;20051;-56
2022/05/28 18:30:49;;;;;;;6.03;1.77;;;;;;;;;;6264286;28;20056;-58
2022/05/28 18:33:49;;;;;;;4.57;1.67;;;;;;;;;;6268764;28;20542;-59
2022/05/28 18:36:51;;;;;;;7.22;1.85;;;;;;;;;;6264660;28;20139;-58
2022/05/28 18:39:51;;;;;;;5.78;2.20;;;;;;;;;;6262507;28;20117;-56
2022/05/28 18:42:53;;;;;;;5.85;2.38;;;;;;;;;;6267299;28;20139;-53